createdAt,value
2023-04-14T00:00:37.730Z,98177.84
2023-04-14T00:03:17.634Z,98174.39
2023-04-14T00:05:46.355Z,98175.73
2023-04-14T00:08:14.748Z,98180.65
2023-04-14T00:10:43.088Z,98181.27
2023-04-14T00:13:11.555Z,98182.56
2023-04-14T00:15:42.061Z,98185.48
2023-04-14T00:18:10.635Z,98186.95
2023-04-14T00:20:39.250Z,98186.84
2023-04-14T00:23:07.636Z,98189.34
2023-04-14T00:25:36.044Z,98191.27
2023-04-14T00:28:04.429Z,98189.27
2023-04-14T00:30:33.020Z,98185.83
2023-04-14T00:33:01.281Z,98186.45
2023-04-14T00:35:32.459Z,98186.35
2023-04-14T00:38:00.763Z,98183.89
2023-04-14T00:40:31.396Z,98180.74
2023-04-14T00:42:59.742Z,98182.20
2023-04-14T00:45:28.723Z,98175.73
2023-04-14T00:47:58.494Z,98170.60
2023-04-14T00:50:26.853Z,98167.02
2023-04-14T00:52:56.166Z,98164.73
2023-04-14T00:55:25.074Z,98158.84
2023-04-14T00:57:54.897Z,98159.00
2023-04-14T01:00:23.435Z,98159.95
2023-04-14T01:02:51.949Z,98165.01
2023-04-14T01:05:20.590Z,98167.22
2023-04-14T01:07:49.912Z,98170.86
2023-04-14T01:10:18.487Z,98170.31
2023-04-14T01:12:46.922Z,98171.96
2023-04-14T01:15:31.317Z,98173.64
2023-04-14T01:18:27.184Z,98171.82
2023-04-14T01:21:21.754Z,98162.32
2023-04-14T01:24:09.373Z,98158.39
2023-04-14T01:26:39.187Z,98153.64
2023-04-14T01:29:16.789Z,98149.95
2023-04-14T01:31:49.493Z,98143.83
2023-04-14T01:34:31.454Z,98136.27
2023-04-14T01:37:15.049Z,98131.05
2023-04-14T01:39:54.701Z,98127.63
2023-04-14T01:42:27.806Z,98121.02
2023-04-14T01:45:01.824Z,98114.62
2023-04-14T01:47:30.483Z,98112.10
2023-04-14T01:50:01.209Z,98110.23
2023-04-14T01:52:31.026Z,98107.52
2023-04-14T01:55:05.917Z,98110.30
2023-04-14T01:57:36.754Z,98114.91
2023-04-14T02:00:09.288Z,98113.77
2023-04-14T02:02:45.628Z,98119.58
2023-04-14T02:05:17.297Z,98120.98
2023-04-14T02:07:48.201Z,98122.96
2023-04-14T02:10:20.504Z,98123.77
2023-04-14T02:12:52.824Z,98124.36
2023-04-14T02:15:24.109Z,98127.70
2023-04-14T02:17:52.976Z,98132.70
2023-04-14T02:20:22.234Z,98129.88
2023-04-14T02:22:50.578Z,98128.15
2023-04-14T02:25:18.987Z,98128.91
2023-04-14T02:27:56.463Z,98126.20
2023-04-14T02:30:30.287Z,98122.60
2023-04-14T02:33:05.765Z,98120.70
2023-04-14T02:35:47.735Z,98117.93
2023-04-14T02:38:33.492Z,98112.26
2023-04-14T02:41:08.922Z,98110.66
2023-04-14T02:43:44.288Z,98108.09
2023-04-14T02:46:15.992Z,98105.33
2023-04-14T02:48:46.410Z,98104.48
2023-04-14T02:51:18.145Z,98106.61
2023-04-14T02:53:48.356Z,98107.21
2023-04-14T02:56:26.430Z,98105.39
2023-04-14T02:58:56.788Z,98107.05
2023-04-14T03:01:26.808Z,98105.52
2023-04-14T03:03:57.899Z,98107.15
2023-04-14T03:06:28.990Z,98107.71
2023-04-14T03:09:00.046Z,98105.41
2023-04-14T03:11:29.545Z,98101.45
2023-04-14T03:13:59.422Z,98101.30
2023-04-14T03:16:28.917Z,98103.94
2023-04-14T03:18:58.570Z,98103.02
2023-04-14T03:21:30.196Z,98101.58
2023-04-14T03:23:59.365Z,98097.14
2023-04-14T03:26:32.490Z,98092.01
2023-04-14T03:29:03.734Z,98091.46
2023-04-14T03:31:37.109Z,98092.04
2023-04-14T03:34:07.656Z,98087.33
2023-04-14T03:36:41.315Z,98089.86
2023-04-14T03:39:12.570Z,98084.94
2023-04-14T03:41:47.824Z,98085.20
2023-04-14T03:44:19.140Z,98080.38
2023-04-14T03:46:49.490Z,98078.79
2023-04-14T03:49:20.875Z,98079.44
2023-04-14T03:51:53.660Z,98075.90
2023-04-14T03:54:25.444Z,98074.44
2023-04-14T03:56:57.010Z,98076.30
2023-04-14T03:59:28.448Z,98073.04
2023-04-14T04:01:57.659Z,98072.95
2023-04-14T04:04:26.322Z,98074.10
2023-04-14T04:06:55.046Z,98069.13
2023-04-14T04:09:24.992Z,98072.59
2023-04-14T04:11:58.092Z,98071.01
2023-04-14T04:14:30.039Z,98072.98
2023-04-14T04:17:02.838Z,98077.98
2023-04-14T04:19:33.757Z,98079.59
2023-04-14T04:22:03.514Z,98083.13
2023-04-14T04:24:37.570Z,98077.11
2023-04-14T04:27:17.140Z,98078.75
2023-04-14T04:29:54.039Z,98078.40
2023-04-14T04:32:22.484Z,98082.64
2023-04-14T04:34:51.871Z,98083.18
2023-04-14T04:37:21.728Z,98079.66
2023-04-14T04:39:50.042Z,98080.04
2023-04-14T04:42:18.858Z,98080.90
2023-04-14T04:44:47.674Z,98077.77
2023-04-14T04:47:16.103Z,98077.73
2023-04-14T04:49:45.096Z,98078.27
2023-04-14T04:52:13.539Z,98075.73
2023-04-14T04:54:41.715Z,98073.39
2023-04-14T04:57:11.201Z,98071.33
2023-04-14T04:59:40.486Z,98071.39
2023-04-14T05:02:08.809Z,98068.30
2023-04-14T05:04:37.279Z,98071.31
2023-04-14T05:07:06.266Z,98068.74
2023-04-14T05:09:34.518Z,98063.46
2023-04-14T05:12:03.171Z,98064.39
2023-04-14T05:14:31.498Z,98061.73
2023-04-14T05:16:59.674Z,98058.95
2023-04-14T05:19:27.875Z,98057.78
2023-04-14T05:21:56.141Z,98057.48
2023-04-14T05:24:24.453Z,98056.15
2023-04-14T05:27:12.344Z,98050.88
2023-04-14T05:29:41.563Z,98043.67
2023-04-14T05:32:10.770Z,98040.02
2023-04-14T05:34:38.980Z,98039.50
2023-04-14T05:37:07.338Z,98036.77
2023-04-14T05:39:35.988Z,98030.65
2023-04-14T05:42:04.413Z,98025.37
2023-04-14T05:44:32.702Z,98018.34
2023-04-14T05:47:01.018Z,98012.95
2023-04-14T05:49:30.721Z,98007.90
2023-04-14T05:51:58.978Z,98003.36
2023-04-14T05:54:27.191Z,98005.20
2023-04-14T05:56:56.491Z,98005.28
2023-04-14T05:59:24.853Z,98003.05
2023-04-14T06:01:53.238Z,98000.81
2023-04-14T06:04:22.182Z,97997.33
2023-04-14T06:06:52.581Z,97996.50
2023-04-14T06:09:21.634Z,97994.73
2023-04-14T06:11:50.105Z,97992.33
2023-04-14T06:14:21.457Z,97992.09
2023-04-14T06:16:52.702Z,97990.23
2023-04-14T06:19:21.259Z,97988.20
2023-04-14T06:21:49.798Z,97985.21
2023-04-14T06:24:18.408Z,97984.06
2023-04-14T06:26:47.538Z,97982.97
2023-04-14T06:29:16.232Z,97983.48
2023-04-14T06:31:44.904Z,97985.14
2023-04-14T06:34:13.428Z,97985.17
2023-04-14T06:36:44.184Z,97990.47
2023-04-14T06:39:14.384Z,97992.69
2023-04-14T06:41:44.091Z,97991.58
2023-04-14T06:44:14.863Z,97990.40
2023-04-14T06:46:43.372Z,97988.93
2023-04-14T06:49:37.518Z,97991.75
2023-04-14T06:52:06.458Z,97984.91
2023-04-14T06:54:36.240Z,97982.73
2023-04-14T06:57:06.034Z,97975.49
2023-04-14T06:59:34.517Z,97972.43
2023-04-14T07:02:03.181Z,97967.70
2023-04-14T07:04:31.871Z,97966.98
2023-04-14T07:07:01.216Z,97950.86
2023-04-14T07:09:29.804Z,97942.67
2023-04-14T07:11:59.707Z,97940.80
2023-04-14T07:14:32.497Z,97933.69
2023-04-14T07:17:01.051Z,97927.10
2023-04-14T07:19:30.038Z,97927.70
2023-04-14T07:21:58.512Z,97928.70
2023-04-14T07:24:26.851Z,97927.82
2023-04-14T07:26:55.619Z,97930.69
2023-04-14T07:29:24.003Z,97937.38
2023-04-14T07:31:52.325Z,97937.38
2023-04-14T07:34:21.301Z,97938.55
2023-04-14T07:36:49.820Z,97939.56
2023-04-14T07:39:22.410Z,97938.56
2023-04-14T07:41:51.228Z,97934.55
2023-04-14T07:44:19.614Z,97935.02
2023-04-14T07:46:47.998Z,97937.88
2023-04-14T07:49:16.527Z,97933.71
2023-04-14T07:51:44.861Z,97930.65
2023-04-14T07:54:13.220Z,97928.43
2023-04-14T07:56:41.939Z,97926.55
2023-04-14T07:59:10.500Z,97930.55
2023-04-14T08:01:39.178Z,97925.76
2023-04-14T08:04:07.677Z,97923.36
2023-04-14T08:06:36.571Z,97920.05
2023-04-14T08:09:04.909Z,97915.96
2023-04-14T08:11:33.223Z,97907.31
2023-04-14T08:14:01.542Z,97905.13
2023-04-14T08:16:30.345Z,97908.02
2023-04-14T08:18:59.112Z,97900.90
2023-04-14T08:21:27.816Z,97896.99
2023-04-14T08:23:56.244Z,97895.98
2023-04-14T08:26:24.635Z,97891.49
2023-04-14T08:28:53.769Z,97888.45
2023-04-14T08:31:25.851Z,97884.59
2023-04-14T08:33:54.302Z,97886.55
2023-04-14T08:36:22.811Z,97881.13
2023-04-14T08:38:51.184Z,97875.20
2023-04-14T08:41:23.415Z,97865.81
2023-04-14T08:43:53.247Z,97860.62
2023-04-14T08:46:24.614Z,97861.64
2023-04-14T08:48:59.161Z,97866.81
2023-04-14T08:51:35.053Z,97868.29
2023-04-14T08:54:10.816Z,97868.23
2023-04-14T08:56:43.242Z,97868.92
2023-04-14T08:59:12.125Z,97868.08
2023-04-14T09:01:40.694Z,97861.88
2023-04-14T09:04:10.388Z,97864.24
2023-04-14T09:06:39.966Z,97867.17
2023-04-14T09:09:16.884Z,97862.95
2023-04-14T09:11:45.529Z,97860.95
2023-04-14T09:14:18.391Z,97862.83
2023-04-14T09:16:48.876Z,97860.80
2023-04-14T09:19:17.556Z,97861.39
2023-04-14T09:21:53.809Z,97854.73
2023-04-14T09:24:25.069Z,97855.48
2023-04-14T09:26:56.090Z,97852.70
2023-04-14T09:29:26.680Z,97854.88
2023-04-14T09:31:55.101Z,97852.30
2023-04-14T09:34:23.615Z,97846.02
2023-04-14T09:37:08.340Z,97842.08
2023-04-14T09:39:48.112Z,97841.66
2023-04-14T09:42:17.726Z,97844.73
2023-04-14T09:44:56.966Z,97844.52
2023-04-14T09:47:26.307Z,97844.03
2023-04-14T09:49:57.737Z,97844.08
2023-04-14T09:52:47.693Z,97848.29
2023-04-14T09:55:16.948Z,97847.70
2023-04-14T09:57:58.519Z,97844.59
2023-04-14T10:00:27.373Z,97841.23
2023-04-14T10:03:01.665Z,97841.20
2023-04-14T10:05:34.561Z,97842.67
2023-04-14T10:08:04.384Z,97835.14
2023-04-14T10:10:33.041Z,97835.08
2023-04-14T10:13:02.246Z,97829.07
2023-04-14T10:15:31.782Z,97828.85
2023-04-14T10:18:01.216Z,97821.48
2023-04-14T10:20:29.955Z,97818.99
2023-04-14T10:22:58.644Z,97821.33
2023-04-14T10:25:28.044Z,97819.09
2023-04-14T10:27:56.940Z,97818.60
2023-04-14T10:30:26.222Z,97812.50
2023-04-14T10:32:54.959Z,97810.45
2023-04-14T10:35:23.484Z,97805.97
2023-04-14T10:37:53.860Z,97801.81
2023-04-14T10:40:23.329Z,97793.02
2023-04-14T10:42:56.738Z,97795.23
2023-04-14T10:46:06.722Z,97797.89
2023-04-14T10:48:38.005Z,97794.65
2023-04-14T10:51:10.868Z,97792.73
2023-04-14T10:53:50.227Z,97795.06
2023-04-14T10:56:25.210Z,97798.78
2023-04-14T10:58:57.344Z,97795.86
2023-04-14T11:01:31.122Z,97790.25
2023-04-14T11:04:18.118Z,97787.64
2023-04-14T11:06:53.045Z,97789.98
2023-04-14T11:09:25.852Z,97785.52
2023-04-14T11:11:56.788Z,97781.86
2023-04-14T11:14:30.800Z,97776.76
2023-04-14T11:17:05.408Z,97770.92
2023-04-14T11:19:34.171Z,97767.53
2023-04-14T11:22:02.731Z,97767.94
2023-04-14T11:24:31.500Z,97767.21
2023-04-14T11:27:00.222Z,97764.66
2023-04-14T11:29:28.807Z,97763.46
2023-04-14T11:32:02.158Z,97762.50
2023-04-14T11:34:30.677Z,97760.48
2023-04-14T11:37:01.707Z,97758.30
2023-04-14T11:39:30.794Z,97759.83
2023-04-14T11:42:01.584Z,97759.69
2023-04-14T11:44:30.414Z,97757.45
2023-04-14T11:46:58.796Z,97753.95
2023-04-14T11:49:36.830Z,97740.03
2023-04-14T11:52:08.726Z,97736.68
2023-04-14T11:54:40.936Z,97733.30
2023-04-14T11:57:14.916Z,97734.27
2023-04-14T11:59:47.967Z,97734.02
2023-04-14T12:02:23.213Z,97728.51
2023-04-14T12:04:52.451Z,97720.95
2023-04-14T12:07:21.100Z,97721.61
2023-04-14T12:09:51.669Z,97719.32
2023-04-14T12:12:20.375Z,97716.16
2023-04-14T12:14:49.845Z,97716.67
2023-04-14T12:17:20.397Z,97712.42
2023-04-14T12:19:49.165Z,97712.61
2023-04-14T12:22:27.912Z,97713.89
2023-04-14T12:24:57.634Z,97715.89
2023-04-14T12:27:27.729Z,97715.96
2023-04-14T12:30:01.402Z,97716.17
2023-04-14T12:32:41.046Z,97714.52
2023-04-14T12:35:14.730Z,97714.46
2023-04-14T12:37:51.733Z,97713.08
2023-04-14T12:40:38.446Z,97712.39
2023-04-14T12:43:08.671Z,97707.19
2023-04-14T12:45:51.947Z,97703.34
2023-04-14T12:48:20.972Z,97692.79
2023-04-14T12:51:07.699Z,97685.12
2023-04-14T12:53:36.404Z,97684.76
2023-04-14T12:56:09.535Z,97687.08
2023-04-14T12:58:43.816Z,97681.91
2023-04-14T13:01:14.138Z,97682.30
2023-04-14T13:03:43.061Z,97677.33
2023-04-14T13:06:16.644Z,97673.48
2023-04-14T13:08:51.655Z,97674.42
2023-04-14T13:11:22.281Z,97668.15
2023-04-14T13:13:52.524Z,97669.88
2023-04-14T13:16:26.244Z,97668.20
2023-04-14T13:18:59.417Z,97666.52
2023-04-14T13:21:31.467Z,97660.97
2023-04-14T13:24:00.058Z,97658.89
2023-04-14T13:26:28.391Z,97655.44
2023-04-14T13:28:56.697Z,97656.64
2023-04-14T13:31:25.020Z,97659.36
2023-04-14T13:33:53.493Z,97657.55
2023-04-14T13:36:22.955Z,97654.42
2023-04-14T13:38:51.696Z,97654.41
2023-04-14T13:41:20.118Z,97649.04
2023-04-14T13:43:48.503Z,97648.67
2023-04-14T13:46:19.081Z,97648.55
2023-04-14T13:48:47.713Z,97646.73
2023-04-14T13:51:15.986Z,97643.38
2023-04-14T13:53:44.333Z,97640.96
2023-04-14T13:56:12.608Z,97635.81
2023-04-14T13:58:41.759Z,97633.63
2023-04-14T14:01:12.665Z,97635.61
2023-04-14T14:03:42.152Z,97636.90
2023-04-14T14:06:10.656Z,97631.59
2023-04-14T14:08:39.201Z,97634.73
2023-04-14T14:11:08.981Z,97635.95
2023-04-14T14:13:38.976Z,97637.34
2023-04-14T14:16:09.983Z,97638.48
2023-04-14T14:18:38.470Z,97639.76
2023-04-14T14:21:06.876Z,97637.01
2023-04-14T14:23:35.149Z,97639.58
2023-04-14T14:26:03.581Z,97644.91
2023-04-14T14:28:32.513Z,97642.42
2023-04-14T14:31:01.110Z,97645.77
2023-04-14T14:33:29.576Z,97644.29
2023-04-14T14:35:57.927Z,97645.71
2023-04-14T14:38:26.359Z,97644.81
2023-04-14T14:40:54.614Z,97642.85
2023-04-14T14:43:22.883Z,97644.78
2023-04-14T14:45:51.282Z,97642.87
2023-04-14T14:48:19.695Z,97641.48
2023-04-14T14:50:47.969Z,97644.02
2023-04-14T14:53:16.645Z,97640.17
2023-04-14T14:55:44.945Z,97637.86
2023-04-14T14:58:13.211Z,97639.04
2023-04-14T15:00:41.662Z,97641.11
2023-04-14T15:03:10.240Z,97641.91
2023-04-14T15:05:38.691Z,97644.99
2023-04-14T15:08:07.363Z,97646.22
2023-04-14T15:10:35.861Z,97644.08
2023-04-14T15:13:04.481Z,97645.20
2023-04-14T15:15:36.256Z,97640.70
2023-04-14T15:18:05.300Z,97639.25
2023-04-14T15:20:33.589Z,97637.65
2023-04-14T15:23:02.336Z,97639.23
2023-04-14T15:25:31.208Z,97636.92
2023-04-14T15:27:59.533Z,97636.41
2023-04-14T15:30:28.125Z,97637.13
2023-04-14T15:32:58.273Z,97639.70
2023-04-14T15:35:26.836Z,97638.19
2023-04-14T15:37:55.173Z,97635.86
2023-04-14T15:40:23.644Z,97639.96
2023-04-14T15:42:52.974Z,97639.35
2023-04-14T15:45:21.692Z,97636.22
2023-04-14T15:47:50.736Z,97634.29
2023-04-14T15:50:19.236Z,97634.22
2023-04-14T15:52:47.610Z,97632.88
2023-04-14T15:55:15.936Z,97630.95
2023-04-14T15:57:44.184Z,97630.71
2023-04-14T16:00:13.166Z,97633.31
2023-04-14T16:02:42.715Z,97631.61
2023-04-14T16:05:11.471Z,97631.64
2023-04-14T16:07:39.998Z,97633.95
2023-04-14T16:10:08.588Z,97635.08
2023-04-14T16:12:36.960Z,97638.37
2023-04-14T16:15:08.768Z,97635.83
2023-04-14T16:17:37.214Z,97636.52
2023-04-14T16:20:06.039Z,97636.45
2023-04-14T16:22:34.345Z,97640.88
2023-04-14T16:25:04.518Z,97639.11
2023-04-14T16:27:33.773Z,97637.55
2023-04-14T16:30:03.305Z,97640.30
2023-04-14T16:32:31.713Z,97638.61
2023-04-14T16:35:01.185Z,97638.09
2023-04-14T16:37:29.503Z,97640.95
2023-04-14T16:39:58.206Z,97642.53
2023-04-14T16:42:26.595Z,97643.56
2023-04-14T16:44:56.236Z,97642.55
2023-04-14T16:47:24.727Z,97641.23
2023-04-14T16:49:54.215Z,97642.92
2023-04-14T16:52:23.379Z,97647.37
2023-04-14T16:54:52.354Z,97646.93
2023-04-14T16:57:21.746Z,97649.97
2023-04-14T16:59:50.110Z,97652.88
2023-04-14T17:02:18.571Z,97650.71
2023-04-14T17:04:47.289Z,97651.30
2023-04-14T17:07:16.145Z,97654.94
2023-04-14T17:09:44.528Z,97655.57
2023-04-14T17:12:12.750Z,97659.94
2023-04-14T17:14:43.387Z,97657.93
2023-04-14T17:17:11.833Z,97662.63
2023-04-14T17:19:40.721Z,97663.23
2023-04-14T17:22:09.250Z,97664.82
2023-04-14T17:24:37.719Z,97669.82
2023-04-14T17:27:06.404Z,97676.07
2023-04-14T17:29:34.883Z,97679.17
2023-04-14T17:32:03.738Z,97681.45
2023-04-14T17:34:33.003Z,97685.71
2023-04-14T17:37:01.469Z,97685.32
2023-04-14T17:39:29.914Z,97683.32
2023-04-14T17:41:58.523Z,97684.08
2023-04-14T17:44:34.531Z,97688.21
2023-04-14T17:47:11.289Z,97692.48
2023-04-14T17:49:39.908Z,97699.76
2023-04-14T17:52:18.390Z,97710.59
2023-04-14T17:54:47.443Z,97712.39
2023-04-14T17:57:17.410Z,97720.51
2023-04-14T17:59:45.983Z,97725.62
2023-04-14T18:02:15.713Z,97725.91
2023-04-14T18:04:44.718Z,97731.94
2023-04-14T18:07:13.040Z,97735.38
2023-04-14T18:09:41.801Z,97739.98
2023-04-14T18:12:10.975Z,97742.99
2023-04-14T18:14:39.550Z,97743.31
2023-04-14T18:17:07.860Z,97746.13
2023-04-14T18:19:36.112Z,97749.16
2023-04-14T18:22:04.423Z,97746.84
2023-04-14T18:28:02.672Z,97751.25
2023-04-14T18:29:54.254Z,97752.51
2023-04-14T18:32:25.220Z,97754.23
2023-04-14T18:34:53.624Z,97752.46
2023-04-14T18:37:21.918Z,97754.89
2023-04-14T18:39:50.404Z,97753.63
2023-04-14T18:42:18.761Z,97749.50
2023-04-14T18:44:47.092Z,97749.64
2023-04-14T18:47:16.087Z,97753.36
2023-04-14T18:49:44.394Z,97756.31
2023-04-14T18:52:13.059Z,97757.15
2023-04-14T18:54:41.429Z,97759.20
2023-04-14T18:57:10.034Z,97759.95
2023-04-14T18:59:38.296Z,97758.35
2023-04-14T19:02:06.746Z,97757.45
2023-04-14T19:04:35.906Z,97759.42
2023-04-14T19:07:04.156Z,97759.97
2023-04-14T19:09:33.747Z,97761.02
2023-04-14T19:12:02.414Z,97762.05
2023-04-14T19:14:30.792Z,97763.09
2023-04-14T19:16:59.182Z,97760.99
2023-04-14T19:19:27.520Z,97764.14
2023-04-14T19:21:55.741Z,97766.35
2023-04-14T19:24:24.369Z,97769.66
2023-04-14T19:26:52.673Z,97770.87
2023-04-14T19:29:23.189Z,97771.95
2023-04-14T19:31:51.992Z,97772.11
2023-04-14T19:34:20.749Z,97770.00
2023-04-14T19:36:49.653Z,97771.50
2023-04-14T19:39:20.230Z,97776.00
2023-04-14T19:41:48.587Z,97780.33
2023-04-14T19:44:21.841Z,97782.74
2023-04-14T19:46:50.702Z,97782.10
2023-04-14T19:49:19.197Z,97783.13
2023-04-14T19:51:49.405Z,97781.14
2023-04-14T19:54:17.855Z,97784.27
2023-04-14T19:56:48.011Z,97790.10
2023-04-14T19:59:17.597Z,97788.17
2023-04-14T20:01:47.461Z,97784.89
2023-04-14T20:04:15.980Z,97785.69
2023-04-14T20:06:44.461Z,97784.16
2023-04-14T20:09:13.116Z,97793.39
2023-04-14T20:11:41.399Z,97791.28
2023-04-14T20:14:10.745Z,97789.16
2023-04-14T20:16:39.182Z,97793.17
2023-04-14T20:19:07.455Z,97794.94
2023-04-14T20:21:35.732Z,97793.40
2023-04-14T20:24:04.730Z,97791.01
2023-04-14T20:26:35.014Z,97786.15
2023-04-14T20:29:05.385Z,97779.39
2023-04-14T20:31:33.783Z,97775.03
2023-04-14T20:34:03.456Z,97770.11
2023-04-14T20:36:35.722Z,97777.89
2023-04-14T20:39:06.041Z,97781.02
2023-04-14T20:41:34.917Z,97779.30
2023-04-14T20:44:06.355Z,97787.40
2023-04-14T20:46:35.022Z,97796.84
2023-04-14T20:49:03.521Z,97798.48
2023-04-14T20:51:32.402Z,97797.84
2023-04-14T20:54:01.861Z,97796.20
2023-04-14T20:56:31.002Z,97802.34
2023-04-14T20:59:00.540Z,97805.02
2023-04-14T21:01:29.285Z,97808.51
2023-04-14T21:03:57.663Z,97811.47
2023-04-14T21:06:26.022Z,97815.14
2023-04-14T21:08:54.330Z,97814.97
2023-04-14T21:11:22.529Z,97816.88
2023-04-14T21:15:40.402Z,97820.84
2023-04-14T21:16:39.738Z,97821.95
2023-04-14T21:19:08.234Z,97819.28
2023-04-14T21:21:36.949Z,97827.77
2023-04-14T21:24:06.026Z,97829.55
2023-04-14T21:26:34.293Z,97824.21
2023-04-14T21:29:02.732Z,97824.71
2023-04-14T21:31:32.229Z,97821.88
2023-04-14T21:34:00.577Z,97816.94
2023-04-14T21:36:28.887Z,97817.00
2023-04-14T21:38:57.368Z,97820.70
2023-04-14T21:41:25.619Z,97821.67
2023-04-14T21:43:53.986Z,97826.18
2023-04-14T21:46:22.341Z,97829.21
2023-04-14T21:48:50.930Z,97834.63
2023-04-14T21:51:19.195Z,97831.52
2023-04-14T21:53:47.832Z,97827.09
2023-04-14T21:56:16.255Z,97827.94
2023-04-14T21:58:45.977Z,97831.61
2023-04-14T22:01:14.452Z,97823.17
2023-04-14T22:03:42.872Z,97818.30
2023-04-14T22:06:11.617Z,97816.64
2023-04-14T22:08:40.804Z,97819.65
2023-04-14T22:11:09.249Z,97822.59
2023-04-14T22:13:37.576Z,97828.02
2023-04-14T22:16:06.480Z,97833.10
2023-04-14T22:18:35.897Z,97831.57
2023-04-14T22:21:10.011Z,97832.69
2023-04-14T22:23:40.154Z,97833.37
2023-04-14T22:26:09.087Z,97839.84
2023-04-14T22:28:46.540Z,97845.23
2023-04-14T22:31:14.933Z,97848.02
2023-04-14T22:33:43.689Z,97858.69
2023-04-14T22:36:12.568Z,97863.81
2023-04-14T22:38:41.985Z,97862.63
2023-04-14T22:41:10.288Z,97866.41
2023-04-14T22:43:38.526Z,97870.02
2023-04-14T22:46:07.088Z,97863.23
2023-04-14T22:48:35.379Z,97860.56
2023-04-14T22:51:03.813Z,97861.82
2023-04-14T22:53:32.236Z,97853.63
2023-04-14T22:56:00.766Z,97848.58
2023-04-14T22:58:32.088Z,97848.27
2023-04-14T23:01:04.480Z,97852.95
2023-04-14T23:03:37.870Z,97852.00
2023-04-14T23:06:07.188Z,97851.35
2023-04-14T23:08:35.519Z,97850.12
2023-04-14T23:11:03.950Z,97849.56
2023-04-14T23:13:32.335Z,97853.10
2023-04-14T23:16:00.817Z,97856.58
2023-04-14T23:18:28.978Z,97861.64
2023-04-14T23:20:57.508Z,97863.29
2023-04-14T23:23:25.906Z,97865.60
2023-04-14T23:25:55.673Z,97871.71
2023-04-14T23:28:25.092Z,97877.54
2023-04-14T23:30:53.396Z,97885.54
2023-04-14T23:33:21.928Z,97889.80
2023-04-14T23:35:51.078Z,97892.23
2023-04-14T23:38:19.632Z,97892.66
2023-04-14T23:40:48.332Z,97895.13
2023-04-14T23:43:16.759Z,97897.11
2023-04-14T23:45:45.167Z,97898.76
2023-04-14T23:48:13.381Z,97895.77
2023-04-14T23:51:00.231Z,97890.90
2023-04-14T23:53:30.362Z,97886.30
2023-04-14T23:55:58.780Z,97886.86
2023-04-14T23:58:30.289Z,97893.02
